sensor_id;sensor_type;location;lat;lon;timestamp;temperature;humidity
67777;DHT22;54576;52.020;5.536;2024-01-25T00:01:49;8.10;99.90
67777;DHT22;54576;52.020;5.536;2024-01-25T00:04:14;8.10;99.90
67777;DHT22;54576;52.020;5.536;2024-01-25T00:06:40;8.00;99.90
67777;DHT22;54576;52.020;5.536;2024-01-25T00:09:05;8.00;99.90
67777;DHT22;54576;52.020;5.536;2024-01-25T00:11:31;8.00;99.90
67777;DHT22;54576;52.020;5.536;2024-01-25T00:13:58;8.00;99.90
67777;DHT22;54576;52.020;5.536;2024-01-25T00:16:23;8.00;99.90
67777;DHT22;54576;52.020;5.536;2024-01-25T00:18:49;8.00;99.90
67777;DHT22;54576;52.020;5.536;2024-01-25T00:21:14;8.00;99.90
67777;DHT22;54576;52.020;5.536;2024-01-25T00:23:40;7.90;99.90
67777;DHT22;54576;52.020;5.536;2024-01-25T00:26:05;7.80;99.90
67777;DHT22;54576;52.020;5.536;2024-01-25T00:28:31;7.80;99.90
67777;DHT22;54576;52.020;5.536;2024-01-25T00:30:58;7.80;99.90
67777;DHT22;54576;52.020;5.536;2024-01-25T00:33:24;7.70;99.90
67777;DHT22;54576;52.020;5.536;2024-01-25T00:35:49;7.70;99.90
67777;DHT22;54576;52.020;5.536;2024-01-25T00:38:15;7.70;99.90
67777;DHT22;54576;52.020;5.536;2024-01-25T00:40:41;7.60;99.90
67777;DHT22;54576;52.020;5.536;2024-01-25T00:43:07;7.60;99.90
67777;DHT22;54576;52.020;5.536;2024-01-25T00:45:33;7.60;99.90
67777;DHT22;54576;52.020;5.536;2024-01-25T00:47:59;7.60;99.90
67777;DHT22;54576;52.020;5.536;2024-01-25T00:50:24;7.50;99.90
67777;DHT22;54576;52.020;5.536;2024-01-25T00:52:51;7.50;99.90
67777;DHT22;54576;52.020;5.536;2024-01-25T00:55:17;7.50;99.90
67777;DHT22;54576;52.020;5.536;2024-01-25T00:57:44;7.50;99.90
67777;DHT22;54576;52.020;5.536;2024-01-25T01:00:10;7.40;99.90
67777;DHT22;54576;52.020;5.536;2024-01-25T01:02:42;7.40;99.90
67777;DHT22;54576;52.020;5.536;2024-01-25T01:05:08;7.40;99.90
67777;DHT22;54576;52.020;5.536;2024-01-25T01:07:34;7.30;99.90
67777;DHT22;54576;52.020;5.536;2024-01-25T01:10:00;7.30;99.90
67777;DHT22;54576;52.020;5.536;2024-01-25T01:12:25;7.20;99.90
67777;DHT22;54576;52.020;5.536;2024-01-25T01:14:51;7.20;99.90
67777;DHT22;54576;52.020;5.536;2024-01-25T01:17:16;7.20;99.90
67777;DHT22;54576;52.020;5.536;2024-01-25T01:19:44;7.10;99.90
67777;DHT22;54576;52.020;5.536;2024-01-25T01:22:09;7.10;99.90
67777;DHT22;54576;52.020;5.536;2024-01-25T01:24:35;7.00;99.90
67777;DHT22;54576;52.020;5.536;2024-01-25T01:27:00;7.00;99.90
67777;DHT22;54576;52.020;5.536;2024-01-25T01:29:26;7.00;99.90
67777;DHT22;54576;52.020;5.536;2024-01-25T01:31:52;7.00;99.90
67777;DHT22;54576;52.020;5.536;2024-01-25T01:34:17;6.90;99.90
67777;DHT22;54576;52.020;5.536;2024-01-25T01:36:46;6.90;99.90
67777;DHT22;54576;52.020;5.536;2024-01-25T01:39:11;6.90;99.90
67777;DHT22;54576;52.020;5.536;2024-01-25T01:41:37;6.80;99.90
67777;DHT22;54576;52.020;5.536;2024-01-25T01:44:03;6.80;99.90
67777;DHT22;54576;52.020;5.536;2024-01-25T01:46:33;6.70;99.90
67777;DHT22;54576;52.020;5.536;2024-01-25T01:49:04;6.70;99.90
67777;DHT22;54576;52.020;5.536;2024-01-25T01:51:33;6.70;99.90
67777;DHT22;54576;52.020;5.536;2024-01-25T01:54:00;6.70;99.90
67777;DHT22;54576;52.020;5.536;2024-01-25T01:56:27;6.60;99.90
67777;DHT22;54576;52.020;5.536;2024-01-25T01:58:56;6.60;99.90
67777;DHT22;54576;52.020;5.536;2024-01-25T02:01:24;6.50;99.90
67777;DHT22;54576;52.020;5.536;2024-01-25T02:03:50;6.50;99.90
67777;DHT22;54576;52.020;5.536;2024-01-25T02:06:15;6.50;99.90
67777;DHT22;54576;52.020;5.536;2024-01-25T02:08:41;6.50;99.90
67777;DHT22;54576;52.020;5.536;2024-01-25T02:11:07;6.40;99.90
67777;DHT22;54576;52.020;5.536;2024-01-25T02:13:34;6.40;99.90
67777;DHT22;54576;52.020;5.536;2024-01-25T02:16:00;6.30;99.90
67777;DHT22;54576;52.020;5.536;2024-01-25T02:18:26;6.30;99.90
67777;DHT22;54576;52.020;5.536;2024-01-25T02:20:51;6.30;99.90
67777;DHT22;54576;52.020;5.536;2024-01-25T02:23:17;6.20;99.90
67777;DHT22;54576;52.020;5.536;2024-01-25T02:25:42;6.20;99.90
67777;DHT22;54576;52.020;5.536;2024-01-25T02:28:08;6.10;99.90
67777;DHT22;54576;52.020;5.536;2024-01-25T02:30:34;6.10;99.90
67777;DHT22;54576;52.020;5.536;2024-01-25T02:32:59;6.00;99.90
67777;DHT22;54576;52.020;5.536;2024-01-25T02:35:25;5.90;99.90
67777;DHT22;54576;52.020;5.536;2024-01-25T02:37:50;5.90;99.90
67777;DHT22;54576;52.020;5.536;2024-01-25T02:40:16;5.90;99.90
67777;DHT22;54576;52.020;5.536;2024-01-25T02:42:42;5.80;99.90
67777;DHT22;54576;52.020;5.536;2024-01-25T02:45:08;5.80;99.90
67777;DHT22;54576;52.020;5.536;2024-01-25T02:47:33;5.80;99.90
67777;DHT22;54576;52.020;5.536;2024-01-25T02:49:59;5.70;99.90
67777;DHT22;54576;52.020;5.536;2024-01-25T02:52:27;5.70;99.90
67777;DHT22;54576;52.020;5.536;2024-01-25T02:54:53;5.70;99.90
67777;DHT22;54576;52.020;5.536;2024-01-25T02:57:18;5.60;99.90
67777;DHT22;54576;52.020;5.536;2024-01-25T02:59:44;5.60;99.90
67777;DHT22;54576;52.020;5.536;2024-01-25T03:02:09;5.60;99.90
67777;DHT22;54576;52.020;5.536;2024-01-25T03:04:35;5.60;99.90
67777;DHT22;54576;52.020;5.536;2024-01-25T03:07:00;5.60;99.90
67777;DHT22;54576;52.020;5.536;2024-01-25T03:09:26;5.50;99.90
67777;DHT22;54576;52.020;5.536;2024-01-25T03:11:52;5.50;99.90
67777;DHT22;54576;52.020;5.536;2024-01-25T03:14:18;5.40;99.90
67777;DHT22;54576;52.020;5.536;2024-01-25T03:16:43;5.40;99.90
67777;DHT22;54576;52.020;5.536;2024-01-25T03:19:10;5.40;99.90
67777;DHT22;54576;52.020;5.536;2024-01-25T03:21:36;5.30;99.90
67777;DHT22;54576;52.020;5.536;2024-01-25T03:24:01;5.30;99.90
67777;DHT22;54576;52.020;5.536;2024-01-25T03:26:27;5.30;99.90
67777;DHT22;54576;52.020;5.536;2024-01-25T03:28:53;5.30;99.90
67777;DHT22;54576;52.020;5.536;2024-01-25T03:31:19;5.30;99.90
67777;DHT22;54576;52.020;5.536;2024-01-25T03:33:44;5.20;99.90
67777;DHT22;54576;52.020;5.536;2024-01-25T03:36:13;5.20;99.90
67777;DHT22;54576;52.020;5.536;2024-01-25T03:38:39;5.20;99.90
67777;DHT22;54576;52.020;5.536;2024-01-25T03:41:04;5.20;99.90
67777;DHT22;54576;52.020;5.536;2024-01-25T03:43:30;5.20;99.90
67777;DHT22;54576;52.020;5.536;2024-01-25T03:45:55;5.20;99.90
67777;DHT22;54576;52.020;5.536;2024-01-25T03:48:21;5.20;99.90
67777;DHT22;54576;52.020;5.536;2024-01-25T03:50:47;5.10;99.90
67777;DHT22;54576;52.020;5.536;2024-01-25T03:53:13;5.10;99.90
67777;DHT22;54576;52.020;5.536;2024-01-25T03:55:39;5.10;99.90
67777;DHT22;54576;52.020;5.536;2024-01-25T03:58:04;5.10;99.90
67777;DHT22;54576;52.020;5.536;2024-01-25T04:00:30;5.00;99.90
67777;DHT22;54576;52.020;5.536;2024-01-25T04:03:16;5.00;99.90
67777;DHT22;54576;52.020;5.536;2024-01-25T04:05:41;5.00;99.90
67777;DHT22;54576;52.020;5.536;2024-01-25T04:08:07;5.00;99.90
67777;DHT22;54576;52.020;5.536;2024-01-25T04:10:33;5.00;99.90
67777;DHT22;54576;52.020;5.536;2024-01-25T04:12:59;4.90;99.90
67777;DHT22;54576;52.020;5.536;2024-01-25T04:15:30;4.90;99.90
67777;DHT22;54576;52.020;5.536;2024-01-25T04:17:55;4.90;99.90
67777;DHT22;54576;52.020;5.536;2024-01-25T04:20:24;4.90;99.90
67777;DHT22;54576;52.020;5.536;2024-01-25T04:22:50;4.90;99.90
67777;DHT22;54576;52.020;5.536;2024-01-25T04:25:15;4.90;99.90
67777;DHT22;54576;52.020;5.536;2024-01-25T04:27:41;4.90;99.90
67777;DHT22;54576;52.020;5.536;2024-01-25T04:30:07;4.90;99.90
67777;DHT22;54576;52.020;5.536;2024-01-25T04:32:33;4.90;99.90
67777;DHT22;54576;52.020;5.536;2024-01-25T04:34:59;4.80;99.90
67777;DHT22;54576;52.020;5.536;2024-01-25T04:37:24;4.90;99.90
67777;DHT22;54576;52.020;5.536;2024-01-25T04:39:50;4.80;99.90
67777;DHT22;54576;52.020;5.536;2024-01-25T04:42:16;4.80;99.90
67777;DHT22;54576;52.020;5.536;2024-01-25T04:44:41;4.80;99.90
67777;DHT22;54576;52.020;5.536;2024-01-25T04:47:07;4.80;99.90
67777;DHT22;54576;52.020;5.536;2024-01-25T04:49:33;4.80;99.90
67777;DHT22;54576;52.020;5.536;2024-01-25T04:51:58;4.70;99.90
67777;DHT22;54576;52.020;5.536;2024-01-25T04:54:24;4.70;99.90
67777;DHT22;54576;52.020;5.536;2024-01-25T04:56:49;4.70;99.90
67777;DHT22;54576;52.020;5.536;2024-01-25T04:59:15;4.70;99.90
67777;DHT22;54576;52.020;5.536;2024-01-25T05:01:41;4.70;99.90
67777;DHT22;54576;52.020;5.536;2024-01-25T05:04:06;4.70;99.90
67777;DHT22;54576;52.020;5.536;2024-01-25T05:06:32;4.70;99.90
67777;DHT22;54576;52.020;5.536;2024-01-25T05:08:57;4.70;99.90
67777;DHT22;54576;52.020;5.536;2024-01-25T05:11:23;4.70;99.90
67777;DHT22;54576;52.020;5.536;2024-01-25T05:13:48;4.60;99.90
67777;DHT22;54576;52.020;5.536;2024-01-25T05:16:14;4.70;99.90
67777;DHT22;54576;52.020;5.536;2024-01-25T05:18:40;4.60;99.90
67777;DHT22;54576;52.020;5.536;2024-01-25T05:21:06;4.60;99.90
67777;DHT22;54576;52.020;5.536;2024-01-25T05:23:31;4.60;99.90
67777;DHT22;54576;52.020;5.536;2024-01-25T05:25:57;4.60;99.90
67777;DHT22;54576;52.020;5.536;2024-01-25T05:28:23;4.60;99.90
67777;DHT22;54576;52.020;5.536;2024-01-25T05:30:49;4.60;99.90
67777;DHT22;54576;52.020;5.536;2024-01-25T05:33:15;4.60;99.90
67777;DHT22;54576;52.020;5.536;2024-01-25T05:35:41;4.50;99.90
67777;DHT22;54576;52.020;5.536;2024-01-25T05:38:06;4.50;99.90
67777;DHT22;54576;52.020;5.536;2024-01-25T05:40:32;4.50;99.90
67777;DHT22;54576;52.020;5.536;2024-01-25T05:42:58;4.50;99.90
67777;DHT22;54576;52.020;5.536;2024-01-25T05:45:24;4.50;99.90
67777;DHT22;54576;52.020;5.536;2024-01-25T05:47:50;4.50;99.90
67777;DHT22;54576;52.020;5.536;2024-01-25T05:50:15;4.50;99.90
67777;DHT22;54576;52.020;5.536;2024-01-25T05:52:41;4.50;99.90
67777;DHT22;54576;52.020;5.536;2024-01-25T05:55:07;4.50;99.90
67777;DHT22;54576;52.020;5.536;2024-01-25T05:57:35;4.50;99.90
67777;DHT22;54576;52.020;5.536;2024-01-25T06:00:01;4.50;99.90
67777;DHT22;54576;52.020;5.536;2024-01-25T06:02:27;4.50;99.90
67777;DHT22;54576;52.020;5.536;2024-01-25T06:04:53;4.50;99.90
67777;DHT22;54576;52.020;5.536;2024-01-25T06:07:18;4.40;99.90
67777;DHT22;54576;52.020;5.536;2024-01-25T06:09:45;4.40;99.90
67777;DHT22;54576;52.020;5.536;2024-01-25T06:12:11;4.40;99.90
67777;DHT22;54576;52.020;5.536;2024-01-25T06:14:39;4.40;99.90
67777;DHT22;54576;52.020;5.536;2024-01-25T06:17:05;4.40;99.90
67777;DHT22;54576;52.020;5.536;2024-01-25T06:19:30;4.40;99.90
67777;DHT22;54576;52.020;5.536;2024-01-25T06:21:56;4.30;99.90
67777;DHT22;54576;52.020;5.536;2024-01-25T06:24:22;4.30;99.90
67777;DHT22;54576;52.020;5.536;2024-01-25T06:26:47;4.30;99.90
67777;DHT22;54576;52.020;5.536;2024-01-25T06:29:13;4.30;99.90
67777;DHT22;54576;52.020;5.536;2024-01-25T06:31:42;4.30;99.90
67777;DHT22;54576;52.020;5.536;2024-01-25T06:34:11;4.30;99.90
67777;DHT22;54576;52.020;5.536;2024-01-25T06:36:37;4.30;99.90
67777;DHT22;54576;52.020;5.536;2024-01-25T06:39:03;4.30;99.90
67777;DHT22;54576;52.020;5.536;2024-01-25T06:41:30;4.30;99.90
67777;DHT22;54576;52.020;5.536;2024-01-25T06:43:55;4.30;99.90
67777;DHT22;54576;52.020;5.536;2024-01-25T06:46:21;4.30;99.90
67777;DHT22;54576;52.020;5.536;2024-01-25T06:48:47;4.40;99.90
67777;DHT22;54576;52.020;5.536;2024-01-25T06:51:12;4.40;99.90
67777;DHT22;54576;52.020;5.536;2024-01-25T06:53:39;4.40;99.90
67777;DHT22;54576;52.020;5.536;2024-01-25T06:56:05;4.30;99.90
67777;DHT22;54576;52.020;5.536;2024-01-25T06:58:32;4.30;99.90
67777;DHT22;54576;52.020;5.536;2024-01-25T07:00:57;4.30;99.90
67777;DHT22;54576;52.020;5.536;2024-01-25T07:03:23;4.40;99.90
67777;DHT22;54576;52.020;5.536;2024-01-25T07:05:48;4.40;99.90
67777;DHT22;54576;52.020;5.536;2024-01-25T07:08:14;4.40;99.90
67777;DHT22;54576;52.020;5.536;2024-01-25T07:10:41;4.40;99.90
67777;DHT22;54576;52.020;5.536;2024-01-25T07:13:07;4.40;99.90
67777;DHT22;54576;52.020;5.536;2024-01-25T07:15:33;4.40;99.90
67777;DHT22;54576;52.020;5.536;2024-01-25T07:17:58;4.40;99.90
67777;DHT22;54576;52.020;5.536;2024-01-25T07:20:24;4.40;99.90
67777;DHT22;54576;52.020;5.536;2024-01-25T07:22:49;4.40;99.90
67777;DHT22;54576;52.020;5.536;2024-01-25T07:25:15;4.40;99.90
67777;DHT22;54576;52.020;5.536;2024-01-25T07:27:44;4.40;99.90
67777;DHT22;54576;52.020;5.536;2024-01-25T07:30:11;4.50;99.90
67777;DHT22;54576;52.020;5.536;2024-01-25T07:32:38;4.50;99.90
67777;DHT22;54576;52.020;5.536;2024-01-25T07:35:05;4.50;99.90
67777;DHT22;54576;52.020;5.536;2024-01-25T07:37:31;4.50;99.90
67777;DHT22;54576;52.020;5.536;2024-01-25T07:39:56;4.50;99.90
67777;DHT22;54576;52.020;5.536;2024-01-25T07:42:22;4.50;99.90
67777;DHT22;54576;52.020;5.536;2024-01-25T07:44:47;4.60;99.90
67777;DHT22;54576;52.020;5.536;2024-01-25T07:47:14;4.60;99.90
67777;DHT22;54576;52.020;5.536;2024-01-25T07:49:40;4.60;99.90
67777;DHT22;54576;52.020;5.536;2024-01-25T07:52:06;4.70;99.90
67777;DHT22;54576;52.020;5.536;2024-01-25T07:54:31;4.70;99.90
67777;DHT22;54576;52.020;5.536;2024-01-25T07:56:57;4.70;99.90
67777;DHT22;54576;52.020;5.536;2024-01-25T07:59:22;4.70;99.90
67777;DHT22;54576;52.020;5.536;2024-01-25T08:01:48;4.70;99.90
67777;DHT22;54576;52.020;5.536;2024-01-25T08:04:17;4.70;99.90
67777;DHT22;54576;52.020;5.536;2024-01-25T08:06:42;4.80;99.90
67777;DHT22;54576;52.020;5.536;2024-01-25T08:09:08;4.80;99.90
67777;DHT22;54576;52.020;5.536;2024-01-25T08:11:34;4.80;99.90
67777;DHT22;54576;52.020;5.536;2024-01-25T08:14:00;4.80;99.90
67777;DHT22;54576;52.020;5.536;2024-01-25T08:16:26;4.90;99.90
67777;DHT22;54576;52.020;5.536;2024-01-25T08:18:51;4.90;99.90
67777;DHT22;54576;52.020;5.536;2024-01-25T08:21:17;4.80;99.90
67777;DHT22;54576;52.020;5.536;2024-01-25T08:23:43;4.90;99.90
67777;DHT22;54576;52.020;5.536;2024-01-25T08:26:08;4.90;99.90
67777;DHT22;54576;52.020;5.536;2024-01-25T08:28:41;4.90;99.90
67777;DHT22;54576;52.020;5.536;2024-01-25T08:31:09;4.90;99.90
67777;DHT22;54576;52.020;5.536;2024-01-25T08:33:35;5.00;99.90
67777;DHT22;54576;52.020;5.536;2024-01-25T08:36:01;5.00;99.90
67777;DHT22;54576;52.020;5.536;2024-01-25T08:38:27;5.10;99.90
67777;DHT22;54576;52.020;5.536;2024-01-25T08:40:53;5.10;99.90
67777;DHT22;54576;52.020;5.536;2024-01-25T08:43:18;5.10;99.90
67777;DHT22;54576;52.020;5.536;2024-01-25T08:45:44;5.10;99.90
67777;DHT22;54576;52.020;5.536;2024-01-25T08:48:09;5.10;99.90
67777;DHT22;54576;52.020;5.536;2024-01-25T08:50:36;5.20;99.90
67777;DHT22;54576;52.020;5.536;2024-01-25T08:53:01;5.20;99.90
67777;DHT22;54576;52.020;5.536;2024-01-25T08:55:27;5.30;99.90
67777;DHT22;54576;52.020;5.536;2024-01-25T08:57:53;5.30;99.90
67777;DHT22;54576;52.020;5.536;2024-01-25T09:00:18;5.40;99.90
67777;DHT22;54576;52.020;5.536;2024-01-25T09:02:44;5.40;99.90
67777;DHT22;54576;52.020;5.536;2024-01-25T09:05:10;5.40;99.90
67777;DHT22;54576;52.020;5.536;2024-01-25T09:07:36;5.50;99.90
67777;DHT22;54576;52.020;5.536;2024-01-25T09:10:02;5.50;99.90
67777;DHT22;54576;52.020;5.536;2024-01-25T09:12:29;5.60;99.90
67777;DHT22;54576;52.020;5.536;2024-01-25T09:14:55;5.60;99.90
67777;DHT22;54576;52.020;5.536;2024-01-25T09:17:20;5.70;99.90
67777;DHT22;54576;52.020;5.536;2024-01-25T09:19:49;5.80;99.90
67777;DHT22;54576;52.020;5.536;2024-01-25T09:22:15;5.80;99.90
67777;DHT22;54576;52.020;5.536;2024-01-25T09:24:43;5.80;99.90
67777;DHT22;54576;52.020;5.536;2024-01-25T09:27:09;5.90;99.90
67777;DHT22;54576;52.020;5.536;2024-01-25T09:29:34;6.00;99.90
67777;DHT22;54576;52.020;5.536;2024-01-25T09:32:00;6.00;99.90
67777;DHT22;54576;52.020;5.536;2024-01-25T09:34:25;6.10;99.90
67777;DHT22;54576;52.020;5.536;2024-01-25T09:36:54;6.20;99.90
67777;DHT22;54576;52.020;5.536;2024-01-25T09:39:22;6.20;99.90
67777;DHT22;54576;52.020;5.536;2024-01-25T09:41:48;6.30;99.90
67777;DHT22;54576;52.020;5.536;2024-01-25T09:44:14;6.40;99.90
67777;DHT22;54576;52.020;5.536;2024-01-25T09:46:46;6.40;99.90
67777;DHT22;54576;52.020;5.536;2024-01-25T09:49:12;6.40;99.90
67777;DHT22;54576;52.020;5.536;2024-01-25T09:51:40;6.40;99.90
67777;DHT22;54576;52.020;5.536;2024-01-25T09:54:07;6.40;99.90
67777;DHT22;54576;52.020;5.536;2024-01-25T09:56:33;6.50;99.90
67777;DHT22;54576;52.020;5.536;2024-01-25T09:58:59;6.50;99.90
67777;DHT22;54576;52.020;5.536;2024-01-25T10:01:25;6.70;99.90
67777;DHT22;54576;52.020;5.536;2024-01-25T10:03:51;6.70;99.90
67777;DHT22;54576;52.020;5.536;2024-01-25T10:06:17;6.80;99.90
67777;DHT22;54576;52.020;5.536;2024-01-25T10:08:44;6.90;99.90
67777;DHT22;54576;52.020;5.536;2024-01-25T10:11:12;6.90;99.90
67777;DHT22;54576;52.020;5.536;2024-01-25T10:13:45;7.00;99.90
67777;DHT22;54576;52.020;5.536;2024-01-25T10:16:15;7.10;99.90
67777;DHT22;54576;52.020;5.536;2024-01-25T10:18:42;7.20;99.90
67777;DHT22;54576;52.020;5.536;2024-01-25T10:21:10;7.20;99.90
67777;DHT22;54576;52.020;5.536;2024-01-25T10:23:37;7.30;99.90
67777;DHT22;54576;52.020;5.536;2024-01-25T10:26:03;7.30;99.90
67777;DHT22;54576;52.020;5.536;2024-01-25T10:28:29;7.40;99.90
67777;DHT22;54576;52.020;5.536;2024-01-25T10:30:57;7.50;99.90
67777;DHT22;54576;52.020;5.536;2024-01-25T10:33:24;7.60;99.90
67777;DHT22;54576;52.020;5.536;2024-01-25T10:35:54;7.70;99.90
67777;DHT22;54576;52.020;5.536;2024-01-25T10:41:01;7.90;99.90
67777;DHT22;54576;52.020;5.536;2024-01-25T10:43:27;8.00;99.90
67777;DHT22;54576;52.020;5.536;2024-01-25T10:45:53;8.00;99.90
67777;DHT22;54576;52.020;5.536;2024-01-25T10:48:23;8.10;99.90
67777;DHT22;54576;52.020;5.536;2024-01-25T10:50:48;8.10;99.90
67777;DHT22;54576;52.020;5.536;2024-01-25T10:53:15;8.10;99.90
67777;DHT22;54576;52.020;5.536;2024-01-25T10:55:41;8.10;99.90
67777;DHT22;54576;52.020;5.536;2024-01-25T10:58:07;8.20;99.90
67777;DHT22;54576;52.020;5.536;2024-01-25T11:00:35;8.20;99.90
67777;DHT22;54576;52.020;5.536;2024-01-25T11:03:01;8.20;99.90
67777;DHT22;54576;52.020;5.536;2024-01-25T11:05:28;8.20;99.90
67777;DHT22;54576;52.020;5.536;2024-01-25T11:07:53;8.20;99.90
67777;DHT22;54576;52.020;5.536;2024-01-25T11:10:24;8.20;99.90
67777;DHT22;54576;52.020;5.536;2024-01-25T11:12:51;8.30;99.90
67777;DHT22;54576;52.020;5.536;2024-01-25T11:15:32;8.30;99.90
67777;DHT22;54576;52.020;5.536;2024-01-25T11:17:58;8.30;99.90
67777;DHT22;54576;52.020;5.536;2024-01-25T11:20:27;8.30;99.90
67777;DHT22;54576;52.020;5.536;2024-01-25T11:23:04;8.40;99.90
67777;DHT22;54576;52.020;5.536;2024-01-25T11:25:35;8.40;99.90
67777;DHT22;54576;52.020;5.536;2024-01-25T11:28:11;8.40;99.90
67777;DHT22;54576;52.020;5.536;2024-01-25T11:30:36;8.40;99.90
67777;DHT22;54576;52.020;5.536;2024-01-25T11:33:08;8.40;99.90
67777;DHT22;54576;52.020;5.536;2024-01-25T11:35:35;8.50;99.90
67777;DHT22;54576;52.020;5.536;2024-01-25T11:38:01;8.50;99.90
67777;DHT22;54576;52.020;5.536;2024-01-25T11:40:26;8.50;99.90
67777;DHT22;54576;52.020;5.536;2024-01-25T11:42:53;8.50;99.90
67777;DHT22;54576;52.020;5.536;2024-01-25T11:45:19;8.50;99.90
67777;DHT22;54576;52.020;5.536;2024-01-25T11:47:45;8.60;99.90
67777;DHT22;54576;52.020;5.536;2024-01-25T11:50:12;8.60;99.90
67777;DHT22;54576;52.020;5.536;2024-01-25T11:52:38;8.70;99.90
67777;DHT22;54576;52.020;5.536;2024-01-25T11:55:06;8.80;99.90
67777;DHT22;54576;52.020;5.536;2024-01-25T11:57:40;8.80;99.90
67777;DHT22;54576;52.020;5.536;2024-01-25T12:00:10;8.80;99.90
67777;DHT22;54576;52.020;5.536;2024-01-25T12:02:38;8.80;99.90
67777;DHT22;54576;52.020;5.536;2024-01-25T12:05:04;8.90;99.90
67777;DHT22;54576;52.020;5.536;2024-01-25T12:07:31;8.90;99.90
67777;DHT22;54576;52.020;5.536;2024-01-25T12:10:04;8.90;99.90
67777;DHT22;54576;52.020;5.536;2024-01-25T12:12:30;8.90;99.90
67777;DHT22;54576;52.020;5.536;2024-01-25T12:15:00;8.90;99.90
67777;DHT22;54576;52.020;5.536;2024-01-25T12:17:28;8.90;99.90
67777;DHT22;54576;52.020;5.536;2024-01-25T12:19:55;8.80;99.90
67777;DHT22;54576;52.020;5.536;2024-01-25T12:22:22;8.90;99.90
67777;DHT22;54576;52.020;5.536;2024-01-25T12:24:57;8.80;99.90
67777;DHT22;54576;52.020;5.536;2024-01-25T12:27:23;8.80;99.90
67777;DHT22;54576;52.020;5.536;2024-01-25T12:29:50;8.80;99.90
67777;DHT22;54576;52.020;5.536;2024-01-25T12:32:16;8.80;99.90
67777;DHT22;54576;52.020;5.536;2024-01-25T12:34:52;8.80;99.90
67777;DHT22;54576;52.020;5.536;2024-01-25T12:37:17;8.80;99.90
67777;DHT22;54576;52.020;5.536;2024-01-25T12:39:43;8.80;99.90
67777;DHT22;54576;52.020;5.536;2024-01-25T12:42:08;8.70;99.90
67777;DHT22;54576;52.020;5.536;2024-01-25T12:44:34;8.70;99.90
67777;DHT22;54576;52.020;5.536;2024-01-25T12:47:00;8.80;99.90
67777;DHT22;54576;52.020;5.536;2024-01-25T12:49:27;8.80;99.90
67777;DHT22;54576;52.020;5.536;2024-01-25T12:51:54;8.80;99.90
67777;DHT22;54576;52.020;5.536;2024-01-25T12:54:20;8.90;99.90
67777;DHT22;54576;52.020;5.536;2024-01-25T12:56:45;8.90;99.90
67777;DHT22;54576;52.020;5.536;2024-01-25T12:59:12;9.00;99.90
67777;DHT22;54576;52.020;5.536;2024-01-25T13:01:37;9.10;99.90
67777;DHT22;54576;52.020;5.536;2024-01-25T13:04:03;9.00;99.90
67777;DHT22;54576;52.020;5.536;2024-01-25T13:06:29;9.00;99.90
67777;DHT22;54576;52.020;5.536;2024-01-25T13:08:54;9.00;99.90
67777;DHT22;54576;52.020;5.536;2024-01-25T13:11:20;9.00;99.90
67777;DHT22;54576;52.020;5.536;2024-01-25T13:13:45;9.00;99.90
67777;DHT22;54576;52.020;5.536;2024-01-25T13:16:11;9.00;99.90
67777;DHT22;54576;52.020;5.536;2024-01-25T13:18:37;9.00;99.90
67777;DHT22;54576;52.020;5.536;2024-01-25T13:21:02;9.10;99.90
67777;DHT22;54576;52.020;5.536;2024-01-25T13:23:28;9.00;99.90
67777;DHT22;54576;52.020;5.536;2024-01-25T13:25:53;9.00;99.90
67777;DHT22;54576;52.020;5.536;2024-01-25T13:28:19;9.00;99.90
67777;DHT22;54576;52.020;5.536;2024-01-25T13:30:44;9.00;99.90
67777;DHT22;54576;52.020;5.536;2024-01-25T13:33:10;8.90;99.90
67777;DHT22;54576;52.020;5.536;2024-01-25T13:35:38;8.90;99.90
67777;DHT22;54576;52.020;5.536;2024-01-25T13:38:05;8.90;99.90
67777;DHT22;54576;52.020;5.536;2024-01-25T13:40:30;8.90;99.90
67777;DHT22;54576;52.020;5.536;2024-01-25T13:42:56;8.80;99.90
67777;DHT22;54576;52.020;5.536;2024-01-25T13:45:22;8.80;99.90
67777;DHT22;54576;52.020;5.536;2024-01-25T13:47:47;8.80;99.90
67777;DHT22;54576;52.020;5.536;2024-01-25T13:50:13;8.80;99.90
67777;DHT22;54576;52.020;5.536;2024-01-25T13:52:41;8.70;99.90
67777;DHT22;54576;52.020;5.536;2024-01-25T13:55:07;8.70;99.90
67777;DHT22;54576;52.020;5.536;2024-01-25T13:57:33;8.70;99.90
67777;DHT22;54576;52.020;5.536;2024-01-25T13:59:58;8.80;99.90
67777;DHT22;54576;52.020;5.536;2024-01-25T14:02:24;8.80;99.90
67777;DHT22;54576;52.020;5.536;2024-01-25T14:04:49;8.80;99.90
67777;DHT22;54576;52.020;5.536;2024-01-25T14:07:15;8.80;99.90
67777;DHT22;54576;52.020;5.536;2024-01-25T14:09:42;8.80;99.90
67777;DHT22;54576;52.020;5.536;2024-01-25T14:12:08;8.80;99.90
67777;DHT22;54576;52.020;5.536;2024-01-25T14:14:33;8.80;99.90
67777;DHT22;54576;52.020;5.536;2024-01-25T14:16:59;8.80;99.90
67777;DHT22;54576;52.020;5.536;2024-01-25T14:19:24;8.80;99.90
67777;DHT22;54576;52.020;5.536;2024-01-25T14:21:50;8.80;99.90
67777;DHT22;54576;52.020;5.536;2024-01-25T14:24:16;8.80;99.90
67777;DHT22;54576;52.020;5.536;2024-01-25T14:26:43;8.80;99.90
67777;DHT22;54576;52.020;5.536;2024-01-25T14:29:09;8.80;99.90
67777;DHT22;54576;52.020;5.536;2024-01-25T14:31:35;8.80;99.90
67777;DHT22;54576;52.020;5.536;2024-01-25T14:34:01;8.80;99.90
67777;DHT22;54576;52.020;5.536;2024-01-25T14:36:26;8.80;99.90
67777;DHT22;54576;52.020;5.536;2024-01-25T14:38:52;8.80;99.90
67777;DHT22;54576;52.020;5.536;2024-01-25T14:41:17;8.90;99.90
67777;DHT22;54576;52.020;5.536;2024-01-25T14:43:43;8.80;99.90
67777;DHT22;54576;52.020;5.536;2024-01-25T14:46:10;8.80;99.90
67777;DHT22;54576;52.020;5.536;2024-01-25T14:48:38;8.80;99.90
67777;DHT22;54576;52.020;5.536;2024-01-25T14:51:04;8.80;99.90
67777;DHT22;54576;52.020;5.536;2024-01-25T14:53:29;8.90;99.90
67777;DHT22;54576;52.020;5.536;2024-01-25T14:55:55;8.90;99.90
67777;DHT22;54576;52.020;5.536;2024-01-25T14:58:23;8.80;99.90
67777;DHT22;54576;52.020;5.536;2024-01-25T15:00:50;8.80;99.90
67777;DHT22;54576;52.020;5.536;2024-01-25T15:03:16;8.80;99.90
67777;DHT22;54576;52.020;5.536;2024-01-25T15:05:41;8.80;99.90
67777;DHT22;54576;52.020;5.536;2024-01-25T15:08:07;8.80;99.90
67777;DHT22;54576;52.020;5.536;2024-01-25T15:10:32;8.80;99.90
67777;DHT22;54576;52.020;5.536;2024-01-25T15:12:58;8.70;99.90
67777;DHT22;54576;52.020;5.536;2024-01-25T15:15:27;8.80;99.90
67777;DHT22;54576;52.020;5.536;2024-01-25T15:17:57;8.70;99.90
67777;DHT22;54576;52.020;5.536;2024-01-25T15:20:23;8.60;99.90
67777;DHT22;54576;52.020;5.536;2024-01-25T15:22:50;8.60;99.90
67777;DHT22;54576;52.020;5.536;2024-01-25T15:25:15;8.60;99.90
67777;DHT22;54576;52.020;5.536;2024-01-25T15:27:41;8.50;99.90
67777;DHT22;54576;52.020;5.536;2024-01-25T15:30:07;8.50;99.90
67777;DHT22;54576;52.020;5.536;2024-01-25T15:32:34;8.50;99.90
67777;DHT22;54576;52.020;5.536;2024-01-25T15:35:01;8.50;99.90
67777;DHT22;54576;52.020;5.536;2024-01-25T15:37:26;8.50;99.90
67777;DHT22;54576;52.020;5.536;2024-01-25T15:39:52;8.50;99.90
67777;DHT22;54576;52.020;5.536;2024-01-25T15:42:17;8.50;99.90